This is the latest recevied weather packets stored in our database for station/object KI8L. If no packets are shown the sender has not sent any weather packets the latest 10 day(s).
| Time | Temp. | Humidity | Pressure | Rain* | Wind** | Luminosity | Snow |
|---|---|---|---|---|---|---|---|
| 1777827570 | 14.44° C | 50% | 1018.2 hPa | 0 mm | - | 687 W/m² | - |
| 1777827267 | 14.44° C | 56% | 1018.4 hPa | 0 mm | - | 686 W/m² | - |
| 1777826963 | 14.44° C | 55% | 1018.5 hPa | 0 mm | - | 680 W/m² | - |
| 1777826661 | 14.44° C | 51% | 1018.5 hPa | 0 mm | - | 675 W/m² | - |
| 1777826357 | 13.89° C | 50% | 1018.4 hPa | 0 mm | - | 667 W/m² | - |
| 1777826055 | 13.89° C | 50% | 1018.7 hPa | 0 mm | - | 668 W/m² | - |
| 1777825751 | 13.89° C | 53% | 1018.7 hPa | 0 mm | - | 663 W/m² | - |
| 1777825449 | 13.89° C | 51% | 1018.7 hPa | 0 mm | - | 660 W/m² | - |
| 1777825146 | 13.89° C | 54% | 1018.6 hPa | 0 mm | - | 655 W/m² | - |
| 1777824842 | 13.89° C | 54% | 1018.6 hPa | 0 mm | - | 652 W/m² | - |
| 1777824539 | 13.89° C | 53% | 1018.7 hPa | 0 mm | - | 647 W/m² | - |
| 1777824235 | 13.33° C | 47% | 1018.8 hPa | 0 mm | - | 641 W/m² | - |
| 1777823931 | 13.33° C | 51% | 1018.8 hPa | 0 mm | - | 634 W/m² | - |
| 1777823629 | 12.78° C | 55% | 1018.9 hPa | 0 mm | - | 629 W/m² | - |
| 1777823325 | 12.78° C | 52% | 1018.9 hPa | 0 mm | - | 622 W/m² | - |
| 1777823023 | 12.78° C | 53% | 1019 hPa | 0 mm | - | 616 W/m² | - |
| 1777822721 | 12.22° C | 50% | 1019 hPa | 0 mm | - | 609 W/m² | - |
| 1777822419 | 12.78° C | 52% | 1019.1 hPa | 0 mm | - | 603 W/m² | - |
| 1777822116 | 12.78° C | 51% | 1019.1 hPa | 0 mm | - | 596 W/m² | - |
| 1777821813 | 12.78° C | 51% | 1019.2 hPa | 0 mm | - | 587 W/m² | - |
| 1777821510 | 12.78° C | 50% | 1019 hPa | 0 mm | - | 578 W/m² | - |
| 1777821208 | 12.22° C | 53% | 1019 hPa | 0 mm | - | 572 W/m² | - |
| 1777820905 | 12.22° C | 50% | 1018.9 hPa | 0 mm | - | 562 W/m² | - |
| 1777820601 | 12.78° C | 50% | 1019 hPa | 0 mm | - | 555 W/m² | - |
| 1777820298 | 12.22° C | 51% | 1019.1 hPa | 0 mm | - | 546 W/m² | - |
* Rain latest hour (hover to see other rain measurements)
** Current wind speed in m/s (hover to see current wind gust speed)